Terminal Aerodrome Forecast
Issued by NWS

Home | Current Version | Previous Version | Graphics & Text | Print | Product List | Glossary On
Versions: 1 2 3 4 5 6 7 8 9 10 11 12 13 14 15 16 17 18
000
FTUS43 KBIS 261730
TAFMOT
TAF
KMOT 261730Z 2618/2718 23013KT P6SM SCT080
     FM262100 18009KT P6SM VCTS BKN080CB
     FM270300 15006KT P6SM SCT080 BKN150
     FM271400 10012KT P6SM -SHRA VCTS BKN040CB=

USA.gov is the U.S. government's official web portal to all federal, state and local government web resources and services.